Time;durP1;ratioP1;P1;durP2;ratioP2;P2;SDS_P1;SDS_P2;PMS_P1;PMS_P2;Temp;Humidity;BMP_temperature;BMP_pressure;BME280_temperature;BME280_humidity;BME280_pressure;Samples;Min_cycle;Max_cycle;Signal;HPM_P1;HPM_P2
2021/05/03 00:00:16;;;;;;;0.43;0.10;;;21.40;35.10;;;;;;5027160;28;20034;-45
2021/05/03 00:02:42;;;;;;;0.50;0.10;;;21.40;35.10;;;;;;5033044;28;20067;-46
2021/05/03 00:05:21;;;;;;;1.88;0.28;;;21.40;35.10;;;;;;5027295;28;20084;-46
2021/05/03 00:07:47;;;;;;;0.80;0.20;;;21.40;35.10;;;;;;5014644;28;20026;-46
2021/05/03 00:10:13;;;;;;;1.33;0.20;;;21.40;35.20;;;;;;5020623;28;20113;-46
2021/05/03 00:12:39;;;;;;;1.40;0.15;;;21.40;35.10;;;;;;5027526;28;20056;-51
2021/05/03 00:15:06;;;;;;;0.70;0.20;;;21.30;35.10;;;;;;5029804;28;20611;-45
2021/05/03 00:17:31;;;;;;;1.08;0.17;;;21.40;35.10;;;;;;5034522;28;20025;-45
2021/05/03 00:19:57;;;;;;;1.33;0.43;;;21.30;35.10;;;;;;5032096;28;20026;-46
2021/05/03 00:22:22;;;;;;;0.47;0.20;;;21.40;35.10;;;;;;5029417;28;20025;-48
2021/05/03 00:24:48;;;;;;;0.52;0.17;;;21.30;35.10;;;;;;5026813;28;20030;-47
2021/05/03 00:27:13;;;;;;;0.50;0.20;;;21.40;35.10;;;;;;5030019;28;20037;-46
2021/05/03 00:29:39;;;;;;;3.03;0.25;;;21.30;35.10;;;;;;5017743;28;20022;-48
2021/05/03 00:32:05;;;;;;;1.75;0.10;;;21.30;35.10;;;;;;5029997;28;20021;-45
2021/05/03 00:34:30;;;;;;;1.10;0.22;;;21.30;35.10;;;;;;5029650;28;20560;-46
2021/05/03 00:36:56;;;;;;;0.32;0.13;;;21.30;35.10;;;;;;5017936;28;20366;-45
2021/05/03 00:39:21;;;;;;;0.95;0.10;;;21.30;35.10;;;;;;5022009;28;20056;-48
2021/05/03 00:41:47;;;;;;;0.68;0.17;;;21.30;35.10;;;;;;5028458;28;20060;-46
2021/05/03 00:44:12;;;;;;;1.30;0.20;;;21.30;35.10;;;;;;5027513;28;20063;-46
2021/05/03 00:46:39;;;;;;;0.88;0.20;;;21.30;35.10;;;;;;5031895;28;20100;-45
2021/05/03 00:49:06;;;;;;;0.75;0.10;;;21.30;35.10;;;;;;5025246;28;20044;-45
2021/05/03 00:51:32;;;;;;;1.00;0.20;;;21.30;35.20;;;;;;5026246;28;20113;-46
2021/05/03 00:53:57;;;;;;;0.60;0.10;;;21.30;35.10;;;;;;5029181;28;20134;-47
2021/05/03 00:56:23;;;;;;;0.40;0.10;;;21.30;35.60;;;;;;5029190;28;20017;-43
2021/05/03 00:58:49;;;;;;;3.35;0.10;;;21.20;35.10;;;;;;5022788;28;20041;-46
2021/05/03 01:01:15;;;;;;;0.88;0.20;;;21.20;35.10;;;;;;5025076;28;20108;-46
2021/05/03 01:03:40;;;;;;;2.63;0.22;;;21.20;35.10;;;;;;5026594;28;20713;-46
2021/05/03 01:06:06;;;;;;;0.60;0.10;;;21.30;35.20;;;;;;5026783;28;20038;-46
2021/05/03 01:08:32;;;;;;;0.80;0.20;;;21.20;35.10;;;;;;5025259;28;20037;-47
2021/05/03 01:10:57;;;;;;;0.43;0.10;;;21.20;35.10;;;;;;5025012;28;20087;-45
2021/05/03 01:13:23;;;;;;;0.93;0.50;;;21.20;35.10;;;;;;5028914;28;20021;-45
2021/05/03 01:15:48;;;;;;;0.73;0.28;;;21.20;35.10;;;;;;5024576;28;20093;-46
2021/05/03 01:18:14;;;;;;;0.43;0.10;;;21.20;35.20;;;;;;5024765;28;20032;-47
2021/05/03 01:20:40;;;;;;;0.40;0.10;;;21.20;35.10;;;;;;5025094;28;20032;-47
2021/05/03 01:23:07;;;;;;;0.20;0.10;;;21.20;35.10;;;;;;5029442;28;20083;-47
2021/05/03 01:25:39;;;;;;;0.77;0.10;;;21.20;35.10;;;;;;5028369;28;20037;-47
2021/05/03 01:28:06;;;;;;;0.55;0.10;;;21.20;35.10;;;;;;5013674;28;20060;-45
2021/05/03 01:30:42;;;;;;;3.38;0.38;;;21.20;35.10;;;;;;5021929;28;20495;-45
2021/05/03 01:33:10;;;;;;;4.05;0.10;;;21.20;35.10;;;;;;5022905;28;20041;-47
2021/05/03 01:35:37;;;;;;;0.50;0.10;;;21.20;35.10;;;;;;5026279;28;20390;-46
2021/05/03 01:38:05;;;;;;;0.30;0.10;;;21.20;35.10;;;;;;5017123;28;20030;-44
2021/05/03 01:40:32;;;;;;;0.30;0.10;;;21.20;35.10;;;;;;5027764;22;552097;-51
2021/05/03 01:43:10;;;;;;;0.28;0.10;;;21.20;35.10;;;;;;5035515;28;20029;-49
2021/05/03 01:45:38;;;;;;;2.70;0.17;;;21.20;35.10;;;;;;5051740;28;20029;-49
2021/05/03 01:48:04;;;;;;;1.30;0.20;;;21.20;35.10;;;;;;5047082;28;20036;-49
2021/05/03 01:50:29;;;;;;;0.45;0.10;;;21.10;35.00;;;;;;5032444;28;20467;-50
2021/05/03 01:52:55;;;;;;;3.65;0.40;;;21.20;35.10;;;;;;5026391;28;20066;-49
2021/05/03 01:55:21;;;;;;;0.60;0.10;;;21.10;35.00;;;;;;5022833;28;20029;-49
2021/05/03 01:57:47;;;;;;;0.77;0.10;;;21.10;35.00;;;;;;5028541;28;20034;-50
2021/05/03 02:00:13;;;;;;;0.20;0.10;;;21.10;35.00;;;;;;5024017;28;20034;-50
2021/05/03 02:02:39;;;;;;;0.28;0.10;;;21.10;35.60;;;;;;5023041;28;20033;-50
2021/05/03 02:05:05;;;;;;;0.43;0.10;;;21.10;35.50;;;;;;5026957;28;20040;-50
2021/05/03 02:07:31;;;;;;;0.82;0.20;;;21.10;35.00;;;;;;5014980;28;20107;-51
2021/05/03 02:09:57;;;;;;;0.57;0.17;;;21.10;35.00;;;;;;5026477;28;20065;-49
2021/05/03 02:12:22;;;;;;;0.40;0.20;;;21.10;35.00;;;;;;5020420;28;20052;-51
2021/05/03 02:14:48;;;;;;;0.60;0.10;;;21.10;35.10;;;;;;5022702;28;20473;-50
2021/05/03 02:17:13;;;;;;;0.45;0.10;;;21.10;35.00;;;;;;5025981;28;20029;-50
2021/05/03 02:19:39;;;;;;;0.20;0.10;;;21.10;35.00;;;;;;5027944;28;20034;-48
2021/05/03 02:22:05;;;;;;;0.40;0.10;;;21.10;35.00;;;;;;5011988;28;20117;-50
2021/05/03 02:24:31;;;;;;;2.25;0.10;;;21.10;35.00;;;;;;5018628;28;20067;-49
2021/05/03 02:26:56;;;;;;;0.35;0.15;;;21.10;35.00;;;;;;5015147;28;20491;-50
2021/05/03 02:29:22;;;;;;;0.38;0.10;;;21.10;35.00;;;;;;5026143;28;20104;-50
2021/05/03 02:31:48;;;;;;;0.20;0.10;;;21.10;35.10;;;;;;5021890;28;20357;-48
2021/05/03 02:34:14;;;;;;;0.20;0.10;;;21.10;35.10;;;;;;5019663;28;20030;-49
2021/05/03 02:36:39;;;;;;;0.30;0.00;;;21.10;35.60;;;;;;5025223;28;20026;-49
2021/05/03 02:39:05;;;;;;;0.65;0.10;;;21.10;35.00;;;;;;5020548;28;20642;-50
2021/05/03 02:41:32;;;;;;;0.30;0.10;;;21.00;35.00;;;;;;5024812;28;20049;-50
2021/05/03 02:43:59;;;;;;;0.40;0.10;;;21.10;35.10;;;;;;5032443;28;20052;-49
2021/05/03 02:46:26;;;;;;;0.15;0.05;;;21.00;35.00;;;;;;5031540;28;20029;-50
2021/05/03 02:48:52;;;;;;;1.90;0.10;;;21.00;35.00;;;;;;5022588;28;20076;-49
2021/05/03 02:51:17;;;;;;;0.30;0.10;;;21.00;35.00;;;;;;5036557;28;20061;-49
2021/05/03 02:53:43;;;;;;;0.65;0.20;;;21.00;35.00;;;;;;5021918;28;20072;-49
2021/05/03 02:56:09;;;;;;;0.32;0.10;;;21.00;35.00;;;;;;5030591;28;20045;-49
2021/05/03 02:58:34;;;;;;;0.30;0.10;;;21.00;35.60;;;;;;5027788;28;20372;-51
2021/05/03 03:01:00;;;;;;;0.38;0.10;;;21.00;35.10;;;;;;5028119;28;20098;-49
2021/05/03 03:03:25;;;;;;;1.88;0.10;;;21.00;35.00;;;;;;5021166;28;20037;-48
2021/05/03 03:05:51;;;;;;;0.52;0.10;;;21.00;35.10;;;;;;5027182;28;20044;-51
2021/05/03 03:08:16;;;;;;;0.30;0.10;;;21.00;35.00;;;;;;5021627;28;20084;-50
2021/05/03 03:10:42;;;;;;;0.20;0.10;;;21.00;35.00;;;;;;5020135;28;20069;-50
2021/05/03 03:13:08;;;;;;;0.60;0.10;;;21.00;35.10;;;;;;5020061;28;20463;-49
2021/05/03 03:15:35;;;;;;;0.28;0.10;;;21.00;35.10;;;;;;5038538;28;20470;-50
2021/05/03 03:18:02;;;;;;;0.60;0.10;;;21.00;35.00;;;;;;5033779;28;20528;-49
2021/05/03 03:20:29;;;;;;;1.55;0.10;;;21.00;35.10;;;;;;5032637;28;20037;-50
2021/05/03 03:22:55;;;;;;;0.80;0.10;;;21.00;35.10;;;;;;5034701;28;20413;-49
2021/05/03 03:25:21;;;;;;;2.50;0.10;;;21.00;35.10;;;;;;5039200;28;20033;-50
2021/05/03 03:27:47;;;;;;;0.85;0.10;;;21.00;35.10;;;;;;5020569;28;20084;-50
2021/05/03 03:30:14;;;;;;;0.25;0.10;;;21.00;35.00;;;;;;5014436;28;20036;-49
2021/05/03 03:32:44;;;;;;;3.17;0.10;;;21.00;35.10;;;;;;5014880;28;20053;-49
2021/05/03 03:35:20;;;;;;;0.28;0.10;;;20.90;35.00;;;;;;5041990;28;20017;-50
2021/05/03 03:37:47;;;;;;;0.30;0.00;;;21.00;35.10;;;;;;5036884;28;20021;-50
2021/05/03 03:40:15;;;;;;;0.20;0.00;;;21.00;35.00;;;;;;5036962;28;20037;-49
2021/05/03 03:42:41;;;;;;;0.82;0.10;;;20.90;35.00;;;;;;5028414;28;20041;-49
2021/05/03 03:45:09;;;;;;;0.40;0.10;;;20.90;35.00;;;;;;5028479;28;20022;-50
2021/05/03 03:47:35;;;;;;;0.73;0.10;;;20.90;35.00;;;;;;5046686;28;20033;-49
2021/05/03 03:50:01;;;;;;;0.63;0.20;;;20.90;35.00;;;;;;5026278;28;20029;-49
2021/05/03 03:52:26;;;;;;;1.20;0.10;;;20.90;35.10;;;;;;5022590;28;20026;-50
2021/05/03 03:54:52;;;;;;;0.55;0.20;;;20.90;35.00;;;;;;5023860;28;20037;-50
2021/05/03 03:57:19;;;;;;;5.50;0.10;;;20.90;35.00;;;;;;5033647;28;20032;-53
2021/05/03 03:59:47;;;;;;;0.40;0.10;;;20.90;35.10;;;;;;5033175;28;20617;-50
2021/05/03 04:02:12;;;;;;;0.20;0.10;;;20.90;35.10;;;;;;5030481;28;20120;-51
2021/05/03 04:04:42;;;;;;;0.73;0.10;;;20.90;35.00;;;;;;5048892;28;20577;-51
2021/05/03 04:09:45;;;;;;;0.50;0.10;;;20.90;35.00;;;;;;5028267;28;20060;-51
2021/05/03 04:12:34;;;;;;;1.67;0.10;;;20.90;35.00;;;;;;5024616;28;20029;-51
2021/05/03 04:25:54;;;;;;;1.15;0.10;;;20.90;35.10;;;;;;5014038;28;20084;-51
2021/05/03 04:28:19;;;;;;;0.63;0.10;;;20.90;35.10;;;;;;5012723;28;20477;-50
2021/05/03 04:30:45;;;;;;;0.82;0.10;;;20.90;35.10;;;;;;5016965;28;20431;-48
2021/05/03 04:33:10;;;;;;;1.25;0.10;;;20.80;35.00;;;;;;5021964;28;20037;-50
2021/05/03 04:35:36;;;;;;;0.75;0.17;;;20.90;35.10;;;;;;5039660;28;20026;-49
2021/05/03 04:38:02;;;;;;;0.75;0.10;;;20.80;35.00;;;;;;5031898;28;20037;-50
2021/05/03 04:40:28;;;;;;;1.05;0.10;;;20.90;35.10;;;;;;5022743;28;20041;-50
2021/05/03 04:42:54;;;;;;;0.50;0.10;;;20.80;35.00;;;;;;5021262;28;20041;-51
2021/05/03 04:45:20;;;;;;;0.90;0.10;;;20.80;35.00;;;;;;5016589;28;20053;-50
2021/05/03 04:47:45;;;;;;;0.98;0.10;;;20.80;35.00;;;;;;5020603;28;20116;-51
2021/05/03 04:50:12;;;;;;;0.40;0.10;;;20.80;35.00;;;;;;5012951;28;20018;-49
2021/05/03 04:52:38;;;;;;;0.70;0.10;;;20.80;35.00;;;;;;5021099;28;20025;-49
2021/05/03 04:55:05;;;;;;;0.30;0.10;;;20.80;35.00;;;;;;5025435;28;20101;-51
2021/05/03 04:57:31;;;;;;;0.77;0.20;;;20.80;35.00;;;;;;5040495;28;20026;-50
2021/05/03 04:59:57;;;;;;;0.20;0.10;;;20.80;35.00;;;;;;5031169;28;20048;-50
2021/05/03 05:02:23;;;;;;;0.43;0.13;;;20.80;35.00;;;;;;5031109;28;20021;-51
2021/05/03 05:04:49;;;;;;;0.60;0.20;;;20.80;35.00;;;;;;5025731;28;20449;-49
2021/05/03 05:07:14;;;;;;;0.82;0.17;;;20.80;35.00;;;;;;5039955;28;20108;-49
2021/05/03 05:09:40;;;;;;;2.00;0.22;;;20.80;35.00;;;;;;5047241;28;20037;-50
2021/05/03 05:12:06;;;;;;;0.45;0.10;;;20.80;35.00;;;;;;5019830;28;20053;-49
2021/05/03 05:14:31;;;;;;;0.47;0.15;;;20.80;35.00;;;;;;5029567;28;20022;-50
2021/05/03 05:16:57;;;;;;;0.50;0.15;;;20.80;35.00;;;;;;5042929;28;20025;-49
2021/05/03 05:19:24;;;;;;;0.70;0.30;;;20.80;35.00;;;;;;5049249;28;20024;-50
2021/05/03 05:21:50;;;;;;;0.63;0.10;;;20.80;35.00;;;;;;5028124;28;20036;-49
2021/05/03 05:24:15;;;;;;;0.52;0.10;;;20.80;35.00;;;;;;5026564;28;20026;-50
2021/05/03 05:26:41;;;;;;;0.30;0.10;;;20.80;35.00;;;;;;5038638;28;20025;-50
2021/05/03 05:29:07;;;;;;;0.95;0.10;;;20.80;35.00;;;;;;5028024;28;20038;-49
2021/05/03 05:31:33;;;;;;;0.50;0.10;;;20.80;35.00;;;;;;5033299;28;20509;-48
2021/05/03 05:33:58;;;;;;;1.63;0.10;;;20.80;35.00;;;;;;5026583;28;20033;-49
2021/05/03 05:36:24;;;;;;;1.25;0.10;;;20.80;35.00;;;;;;5036232;28;20036;-50
2021/05/03 05:38:50;;;;;;;0.22;0.10;;;21.00;35.00;;;;;;5027959;28;20514;-50
2021/05/03 05:41:18;;;;;;;0.50;0.20;;;21.10;34.80;;;;;;5034823;28;20043;-49
2021/05/03 05:43:44;;;;;;;0.45;0.10;;;21.20;34.60;;;;;;5033100;28;20018;-49
2021/05/03 05:46:09;;;;;;;0.80;0.20;;;21.30;34.40;;;;;;5037105;28;20029;-49
2021/05/03 05:48:36;;;;;;;0.70;0.10;;;21.50;34.20;;;;;;5024078;28;20030;-51
2021/05/03 05:51:05;;;;;;;0.40;0.10;;;21.50;34.00;;;;;;5011643;28;20078;-50
2021/05/03 05:53:31;;;;;;;0.50;0.10;;;21.60;34.00;;;;;;5023080;28;20029;-49
2021/05/03 05:55:57;;;;;;;1.73;0.10;;;21.70;33.90;;;;;;5031089;28;20033;-49
2021/05/03 05:58:23;;;;;;;0.50;0.20;;;21.80;33.80;;;;;;5030505;28;20036;-49
2021/05/03 06:00:49;;;;;;;0.77;0.17;;;21.80;33.80;;;;;;5028749;28;20030;-49
2021/05/03 06:03:15;;;;;;;1.65;0.10;;;21.90;33.80;;;;;;5029269;28;20390;-49
2021/05/03 06:05:40;;;;;;;0.88;0.10;;;21.90;33.80;;;;;;5028190;28;20048;-51
2021/05/03 06:08:06;;;;;;;0.50;0.10;;;21.90;33.80;;;;;;5011494;28;20033;-50
2021/05/03 06:10:31;;;;;;;1.50;0.20;;;21.90;33.80;;;;;;5017439;28;20034;-51
2021/05/03 06:12:57;;;;;;;1.35;0.10;;;22.00;33.90;;;;;;5022899;28;20040;-50
2021/05/03 06:15:22;;;;;;;0.40;0.10;;;22.00;33.90;;;;;;5024791;28;20030;-50
2021/05/03 06:17:48;;;;;;;0.20;0.10;;;22.00;33.90;;;;;;5034738;28;20036;-49
2021/05/03 06:20:14;;;;;;;1.40;0.20;;;22.00;34.00;;;;;;5028210;28;20100;-50
2021/05/03 06:22:39;;;;;;;0.17;0.00;;;21.90;34.00;;;;;;5011574;28;20072;-49
2021/05/03 06:25:07;;;;;;;1.05;0.10;;;21.90;34.00;;;;;;5032545;28;20624;-49
2021/05/03 06:27:33;;;;;;;0.28;0.10;;;22.00;34.00;;;;;;5024864;28;20101;-49
2021/05/03 06:29:58;;;;;;;0.73;0.10;;;21.90;34.10;;;;;;5039791;28;20108;-49
2021/05/03 06:32:24;;;;;;;0.28;0.10;;;21.90;34.10;;;;;;5011553;28;20056;-50
2021/05/03 06:34:49;;;;;;;1.95;0.10;;;21.90;34.10;;;;;;5016757;28;20040;-49
2021/05/03 06:37:15;;;;;;;0.30;0.08;;;21.90;34.20;;;;;;5019158;28;20097;-50
2021/05/03 06:39:40;;;;;;;0.20;0.10;;;21.90;34.20;;;;;;5022893;28;20034;-50
2021/05/03 06:42:06;;;;;;;0.50;0.10;;;21.90;34.30;;;;;;5011694;28;20034;-50
2021/05/03 06:44:34;;;;;;;0.30;0.00;;;21.80;34.80;;;;;;5039348;28;20049;-51
2021/05/03 06:47:01;;;;;;;0.35;0.10;;;21.80;34.30;;;;;;5025963;28;20053;-50
2021/05/03 06:49:27;;;;;;;0.28;0.10;;;21.80;34.40;;;;;;5023524;28;20397;-50
2021/05/03 06:51:52;;;;;;;0.30;0.10;;;21.80;34.40;;;;;;5018749;28;20104;-49
2021/05/03 06:54:18;;;;;;;1.90;0.10;;;21.80;34.40;;;;;;5037641;28;20055;-49
2021/05/03 06:56:44;;;;;;;0.75;0.25;;;21.80;34.40;;;;;;5036001;28;20056;-50
2021/05/03 06:59:09;;;;;;;1.17;0.10;;;21.80;34.40;;;;;;5029107;28;20033;-49
2021/05/03 07:01:35;;;;;;;0.20;0.10;;;21.80;34.40;;;;;;5037524;28;20033;-50
2021/05/03 07:04:01;;;;;;;0.30;0.10;;;21.70;34.40;;;;;;5038015;28;20405;-51
2021/05/03 07:06:27;;;;;;;0.57;0.10;;;21.70;34.40;;;;;;5029402;28;20037;-49
2021/05/03 07:08:52;;;;;;;0.50;0.10;;;21.70;34.50;;;;;;5025733;28;20048;-50
2021/05/03 07:11:21;;;;;;;0.57;0.10;;;21.70;34.50;;;;;;5035123;28;20100;-49
2021/05/03 07:13:47;;;;;;;0.75;0.10;;;21.70;34.50;;;;;;5043416;28;20017;-49
2021/05/03 07:16:13;;;;;;;0.38;0.10;;;21.70;34.50;;;;;;5032083;28;20084;-50
2021/05/03 07:18:39;;;;;;;0.60;0.10;;;21.70;34.60;;;;;;5026527;28;20147;-51
2021/05/03 07:21:06;;;;;;;0.20;0.03;;;21.70;34.60;;;;;;5040831;28;20113;-49
2021/05/03 07:23:32;;;;;;;0.30;0.10;;;21.70;34.60;;;;;;5015023;28;20045;-50
2021/05/03 07:25:58;;;;;;;1.35;0.13;;;21.70;34.60;;;;;;5017284;28;20042;-49
2021/05/03 07:28:23;;;;;;;0.17;0.05;;;21.60;34.60;;;;;;5018305;28;20067;-50
2021/05/03 07:30:50;;;;;;;0.55;0.10;;;21.60;34.60;;;;;;5019360;28;20767;-49
2021/05/03 07:33:16;;;;;;;0.15;0.10;;;21.60;34.60;;;;;;5019112;28;20112;-51
2021/05/03 07:35:42;;;;;;;0.20;0.10;;;21.70;34.60;;;;;;5032201;28;20121;-50
2021/05/03 07:38:07;;;;;;;0.20;0.10;;;21.70;34.60;;;;;;5029373;28;20401;-49
2021/05/03 07:43:04;;;;;;;0.33;0.10;;;21.70;34.60;;;;;;5006422;28;20400;-47
2021/05/03 07:45:29;;;;;;;0.45;0.10;;;21.70;34.60;;;;;;5007884;28;20018;-47
2021/05/03 07:47:55;;;;;;;0.90;0.10;;;21.70;34.60;;;;;;5011488;28;20384;-46
2021/05/03 07:50:20;;;;;;;1.15;0.10;;;21.70;34.60;;;;;;5010398;28;20545;-46
2021/05/03 07:52:46;;;;;;;0.50;0.10;;;21.70;34.60;;;;;;4992095;28;20018;-47
2021/05/03 07:55:12;;;;;;;1.00;0.10;;;21.70;34.60;;;;;;4991804;28;20498;-46
2021/05/03 07:57:38;;;;;;;0.20;0.10;;;21.70;34.60;;;;;;5006221;28;20505;-47
2021/05/03 08:00:05;;;;;;;0.10;0.00;;;21.60;34.60;;;;;;4990862;28;20039;-46
2021/05/03 08:02:31;;;;;;;1.05;0.13;;;21.60;34.60;;;;;;4991245;28;20027;-47
2021/05/03 08:04:56;;;;;;;0.55;0.10;;;21.70;34.60;;;;;;4991882;28;20392;-46
2021/05/03 08:07:22;;;;;;;0.52;0.10;;;21.70;34.60;;;;;;4991571;28;20030;-48
2021/05/03 08:09:48;;;;;;;0.43;0.10;;;21.70;34.60;;;;;;4991977;28;20058;-46
2021/05/03 08:12:13;;;;;;;0.22;0.10;;;21.70;34.60;;;;;;4992144;28;20022;-48
2021/05/03 08:14:39;;;;;;;0.40;0.10;;;21.70;34.60;;;;;;4993083;28;20037;-48
2021/05/03 08:17:06;;;;;;;0.30;0.10;;;21.70;34.60;;;;;;4992579;28;20033;-45
2021/05/03 08:19:34;;;;;;;0.47;0.10;;;21.70;34.50;;;;;;4991546;28;20034;-47
2021/05/03 08:22:01;;;;;;;0.68;0.10;;;21.70;34.50;;;;;;4991065;28;20117;-44
2021/05/03 08:24:28;;;;;;;0.57;0.10;;;21.70;34.50;;;;;;4991740;28;20468;-46
2021/05/03 08:26:53;;;;;;;0.95;0.10;;;21.70;34.50;;;;;;4990642;28;20500;-46
2021/05/03 08:29:19;;;;;;;0.77;0.15;;;21.70;34.50;;;;;;4990962;28;20081;-46
2021/05/03 08:31:45;;;;;;;0.90;0.10;;;21.70;34.50;;;;;;4989863;28;20027;-44
2021/05/03 08:34:11;;;;;;;1.67;0.50;;;21.70;34.50;;;;;;4991209;28;20117;-46
2021/05/03 08:36:37;;;;;;;0.50;0.10;;;21.70;34.50;;;;;;4991086;28;20114;-46
2021/05/03 08:39:05;;;;;;;0.50;0.10;;;21.70;34.50;;;;;;4990526;28;20041;-46
2021/05/03 08:41:30;;;;;;;0.40;0.10;;;21.70;34.50;;;;;;4991458;28;20042;-47
2021/05/03 08:43:56;;;;;;;0.20;0.10;;;21.70;34.50;;;;;;4990716;28;20034;-46
2021/05/03 08:46:29;;;;;;;0.32;0.10;;;21.70;34.50;;;;;;4992386;28;20035;-45
2021/05/03 08:49:16;;;;;;;0.95;0.10;;;21.80;34.40;;;;;;4993381;28;20038;-45
2021/05/03 08:52:10;;;;;;;0.47;0.15;;;21.80;34.40;;;;;;4994572;28;20019;-45
2021/05/03 08:54:40;;;;;;;1.08;0.17;;;21.80;34.40;;;;;;4993979;28;20099;-46
2021/05/03 08:57:09;;;;;;;0.45;0.10;;;21.80;34.40;;;;;;4994262;28;20046;-47
2021/05/03 08:59:36;;;;;;;1.67;0.13;;;21.80;34.30;;;;;;4994847;28;20099;-47
2021/05/03 09:02:03;;;;;;;0.32;0.10;;;21.80;34.30;;;;;;4994742;28;20053;-48
2021/05/03 09:04:30;;;;;;;0.32;0.10;;;21.80;34.30;;;;;;4995470;28;20030;-45
2021/05/03 09:06:58;;;;;;;0.60;0.20;;;21.80;34.30;;;;;;4992417;28;20088;-46
2021/05/03 09:09:39;;;;;;;0.50;0.13;;;21.80;34.30;;;;;;4985349;28;20038;-49
2021/05/03 09:12:17;;;;;;;3.92;0.20;;;21.90;34.40;;;;;;4991775;28;20049;-44
2021/05/03 09:14:58;;;;;;;0.40;0.10;;;21.90;34.30;;;;;;4994461;28;20023;-47
2021/05/03 09:17:27;;;;;;;;;;;21.90;34.20;;;;;;4992771;28;20060;-47
2021/05/03 09:19:55;;;;;;;0.57;0.20;;;22.00;34.20;;;;;;4988941;28;20591;-47
2021/05/03 09:22:39;;;;;;;0.40;0.10;;;22.10;34.10;;;;;;5005767;28;20387;-45
2021/05/03 09:25:25;;;;;;;0.90;0.20;;;22.20;34.00;;;;;;4990635;28;20165;-45
2021/05/03 09:28:12;;;;;;;2.38;0.20;;;22.30;34.00;;;;;;4988964;28;20407;-48
2021/05/03 09:30:43;;;;;;;1.10;0.17;;;22.40;34.50;;;;;;4989284;28;20026;-50
2021/05/03 09:33:28;;;;;;;0.70;0.10;;;22.50;33.90;;;;;;4989918;28;20140;-45
2021/05/03 09:36:06;;;;;;;1.60;0.17;;;22.50;33.80;;;;;;4993031;28;20562;-45
2021/05/03 09:38:35;;;;;;;0.30;0.10;;;22.60;33.80;;;;;;4990735;28;20033;-46
2021/05/03 09:41:25;;;;;;;0.75;0.10;;;22.60;33.80;;;;;;4989451;28;20038;-47
2021/05/03 09:44:05;;;;;;;0.63;0.20;;;22.70;33.80;;;;;;4988770;28;20022;-47
2021/05/03 09:46:39;;;;;;;0.30;0.10;;;22.70;33.80;;;;;;5003337;28;20026;-47
2021/05/03 09:49:16;;;;;;;0.32;0.10;;;22.70;33.80;;;;;;4989500;28;20034;-46
2021/05/03 09:51:46;;;;;;;0.63;0.20;;;22.80;33.80;;;;;;4989534;28;20038;-46
2021/05/03 09:54:12;;;;;;;0.40;0.10;;;22.80;33.80;;;;;;4989342;28;20080;-48
2021/05/03 09:56:49;;;;;;;0.45;0.10;;;22.80;33.80;;;;;;4989941;28;20053;-46
2021/05/03 09:59:25;;;;;;;0.82;0.10;;;22.80;33.80;;;;;;4990353;28;20403;-49
2021/05/03 10:02:33;;;;;;;0.57;0.10;;;22.80;33.90;;;;;;4989046;28;20062;-46
2021/05/03 10:05:10;;;;;;;0.70;0.10;;;22.80;33.90;;;;;;4986235;28;20038;-46
2021/05/03 10:07:39;;;;;;;0.43;0.10;;;22.80;33.90;;;;;;4991233;28;20088;-47
2021/05/03 10:12:36;;;;;;;0.40;0.10;;;22.80;33.90;;;;;;4988960;28;20031;-49
2021/05/03 10:15:08;;;;;;;0.40;0.10;;;22.80;34.00;;;;;;4989093;28;20078;-46
2021/05/03 10:17:40;;;;;;;0.40;0.20;;;22.80;34.00;;;;;;4990408;28;20039;-48
2021/05/03 10:20:08;;;;;;;1.25;0.20;;;22.80;34.00;;;;;;4989620;28;20092;-47
2021/05/03 10:22:34;;;;;;;0.38;0.10;;;22.80;34.00;;;;;;4987404;28;20023;-49
2021/05/03 10:25:05;;;;;;;0.40;0.10;;;22.80;34.10;;;;;;4984013;28;20061;-46
2021/05/03 10:27:33;;;;;;;0.15;0.00;;;22.80;34.10;;;;;;4998764;28;20026;-47
2021/05/03 10:30:10;;;;;;;1.25;0.10;;;22.80;34.10;;;;;;5000542;28;20038;-46
2021/05/03 10:32:36;;;;;;;0.68;0.10;;;22.80;34.10;;;;;;4998702;28;20030;-47
2021/05/03 10:35:08;;;;;;;0.63;0.20;;;22.80;34.10;;;;;;4994987;28;20029;-47
2021/05/03 10:37:41;;;;;;;;;;;22.80;34.20;;;;;;4994832;28;20549;-48
2021/05/03 10:40:13;;;;;;;3.67;0.38;;;22.90;36.30;;;;;;4992862;28;20003;-52
2021/05/03 10:43:01;;;;;;;1.25;0.20;;;23.00;35.10;;;;;;4989558;28;20076;-48
2021/05/03 10:57:08;;;;;;;2.38;0.20;;;22.90;35.40;;;;;;4990458;28;20049;-46
2021/05/03 10:59:53;;;;;;;0.50;0.10;;;22.90;35.60;;;;;;4989584;28;20030;-46
2021/05/03 11:02:26;;;;;;;0.60;0.20;;;23.00;36.40;;;;;;4988854;28;20081;-49
2021/05/03 11:05:12;;;;;;;1.80;0.25;;;23.00;36.20;;;;;;4991686;28;20089;-46
2021/05/03 11:08:03;;;;;;;3.00;0.10;;;23.10;37.30;;;;;;4991439;28;20407;-46
2021/05/03 11:10:59;;;;;;;1.48;0.20;;;23.10;37.50;;;;;;4991421;28;20030;-45
2021/05/03 11:13:37;;;;;;;0.43;0.10;;;23.00;37.10;;;;;;5003353;28;20061;-45
2021/05/03 11:16:25;;;;;;;2.85;0.10;;;23.00;37.70;;;;;;4990808;28;20068;-43
2021/05/03 11:18:52;;;;;;;0.93;0.10;;;23.10;36.90;;;;;;4989784;28;20434;-46
2021/05/03 11:21:40;;;;;;;0.63;0.30;;;23.10;37.50;;;;;;4990329;28;20030;-46
2021/05/03 11:24:33;;;;;;;3.10;0.30;;;23.10;36.60;;;;;;4991297;28;20030;-46
2021/05/03 11:27:04;;;;;;;0.60;0.20;;;23.10;36.30;;;;;;4988848;28;20027;-50
2021/05/03 11:29:39;;;;;;;2.17;0.25;;;23.10;35.60;;;;;;4990042;28;20023;-46
2021/05/03 11:32:06;;;;;;;0.60;0.20;;;23.10;35.70;;;;;;4988266;28;20134;-45
2021/05/03 11:34:58;;;;;;;1.70;0.22;;;23.10;36.00;;;;;;4993676;28;20054;-49
2021/05/03 11:37:29;;;;;;;1.15;0.20;;;23.10;36.30;;;;;;4987493;28;20033;-50
2021/05/03 11:40:05;;;;;;;0.98;0.40;;;23.10;35.90;;;;;;4991932;28;20030;-45
2021/05/03 11:45:43;;;;;;;0.60;0.20;;;23.10;35.90;;;;;;4987095;28;20026;-48
2021/05/03 11:48:09;;;;;;;0.77;0.13;;;23.10;35.60;;;;;;4988102;28;20065;-45
2021/05/03 11:50:35;;;;;;;1.17;0.28;;;23.10;35.40;;;;;;4988952;28;20037;-45
2021/05/03 11:53:00;;;;;;;2.53;0.50;;;23.00;35.50;;;;;;4991949;28;20026;-45
2021/05/03 11:55:27;;;;;;;1.10;0.20;;;23.10;35.50;;;;;;4992089;28;20027;-49
2021/05/03 11:57:53;;;;;;;1.10;0.13;;;23.00;35.40;;;;;;4992173;28;20037;-47
2021/05/03 12:00:21;;;;;;;1.13;0.32;;;23.10;36.10;;;;;;4992023;28;20045;-47
2021/05/03 12:03:06;;;;;;;0.93;0.20;;;23.10;35.60;;;;;;4992649;28;20026;-42
2021/05/03 12:05:33;;;;;;;0.50;0.20;;;23.20;35.60;;;;;;5004473;28;20026;-48
2021/05/03 12:08:12;;;;;;;0.73;0.17;;;23.20;35.70;;;;;;4990204;28;20031;-44
2021/05/03 12:10:37;;;;;;;0.43;0.10;;;23.20;35.70;;;;;;4990603;28;20591;-46
2021/05/03 12:13:03;;;;;;;0.60;0.10;;;23.10;35.80;;;;;;5006003;28;20026;-48
2021/05/03 12:15:30;;;;;;;1.30;0.20;;;23.10;35.80;;;;;;4988990;28;20166;-43
2021/05/03 12:18:00;;;;;;;0.75;0.20;;;23.10;35.50;;;;;;4989781;28;20583;-45
2021/05/03 12:20:28;;;;;;;0.40;0.10;;;23.10;35.70;;;;;;4990472;28;20030;-48
2021/05/03 12:22:56;;;;;;;0.47;0.10;;;23.10;35.80;;;;;;4991056;28;20034;-49
2021/05/03 12:25:22;;;;;;;2.42;0.25;;;23.10;35.70;;;;;;4990197;28;20019;-45
2021/05/03 12:27:48;;;;;;;0.40;0.10;;;23.10;35.70;;;;;;4989850;28;20651;-54
2021/05/03 12:30:14;;;;;;;0.90;0.20;;;23.10;36.10;;;;;;4989960;28;20015;-44
2021/05/03 12:32:41;;;;;;;0.75;0.10;;;23.20;36.20;;;;;;4989951;28;20027;-41
2021/05/03 12:35:13;;;;;;;0.63;0.10;;;23.20;36.20;;;;;;4990350;28;20089;-46
2021/05/03 12:37:39;;;;;;;0.40;0.10;;;23.10;35.80;;;;;;4989578;28;20034;-44
2021/05/03 12:40:07;;;;;;;0.68;0.17;;;23.10;35.80;;;;;;4989416;28;20026;-46
2021/05/03 12:42:36;;;;;;;0.52;0.10;;;23.10;35.80;;;;;;4989651;28;20037;-45
2021/05/03 12:45:16;;;;;;;1.42;0.20;;;23.10;35.90;;;;;;4984729;28;20030;-44
2021/05/03 12:53:45;;;;;;;1.10;0.10;;;23.10;36.00;;;;;;4988629;28;20018;-45
2021/05/03 13:04:41;;;;;;;0.40;0.10;;;23.10;36.10;;;;;;4988006;28;20117;-46
2021/05/03 13:29:15;;;;;;;0.30;0.10;;;23.10;36.20;;;;;;4991767;28;20062;-44
2021/05/03 13:31:43;;;;;;;0.60;0.25;;;23.20;36.20;;;;;;4985175;28;20038;-44
2021/05/03 13:34:11;;;;;;;1.10;0.45;;;23.20;36.10;;;;;;4988725;28;20057;-43
2021/05/03 13:36:39;;;;;;;0.82;0.38;;;23.10;36.00;;;;;;4986816;28;20541;-44
2021/05/03 13:39:07;;;;;;;0.45;0.10;;;23.10;36.00;;;;;;4988511;28;20029;-44
2021/05/03 13:41:35;;;;;;;0.40;0.20;;;23.10;36.10;;;;;;4987842;28;20033;-44
2021/05/03 13:44:01;;;;;;;0.50;0.10;;;23.00;36.20;;;;;;5036058;22;20038;-51
2021/05/03 13:46:26;;;;;;;0.70;0.30;;;23.00;36.10;;;;;;5015760;28;20064;-51
2021/05/03 13:48:54;;;;;;;1.85;0.52;;;23.00;35.90;;;;;;5020217;28;21557;-51
2021/05/03 13:51:20;;;;;;;0.82;0.20;;;23.00;35.90;;;;;;5022653;28;20044;-50
2021/05/03 13:53:45;;;;;;;1.85;0.20;;;23.00;36.40;;;;;;5016314;28;20030;-51
2021/05/03 13:56:11;;;;;;;1.42;0.40;;;23.10;36.50;;;;;;5009898;28;20026;-49
2021/05/03 13:58:36;;;;;;;0.75;0.25;;;23.10;36.10;;;;;;5006479;28;20034;-50
2021/05/03 14:01:02;;;;;;;2.53;0.30;;;23.10;35.90;;;;;;5008931;28;20037;-49
2021/05/03 14:03:28;;;;;;;0.77;0.25;;;23.10;35.90;;;;;;5010799;28;20032;-48